VIP Ground Handling & Aviation Services

 

 
Airport

MYTILENE (MJT)

Ground Handling Services – MJT/LGMT

VIP Ground Handling

State Ground Handling

Military Ground Handling

Slot & PPR Coordination

Fuel Arrangements

Crew Accommodation Arrangements

Crew Transportation

Customs & Immigration Assistance

Executive Terminal Services

Crew Lounge

Flight Planning, Weather Briefing and NOTAMs

Catering Arrangements

Security Services

Aircraft Maintenance

Airport Customs & Immigration

Concierge Services

VIP Meet & Greet

Helicopter Transfers

Chauffeur Services

Aircraft Charter

Yacht Charter

Hire & Rental

Entertainment & Hospitality

Health & Beauty

Delivery Services

Conference & Meeting rooms

Mytilene Airport, Mytilene, 811 00

+30 210 35 33 331 (24/7)

+30 694 6200 300 (24/7)

greece@alphajetservices.com

Mytilene Airport
Airport Type
•Civil
Operating Hours
•Check NOTAMS / Contact us
Fuel Available
•JET A1
Fire Category
•6
Approaches
•VOR / DME NDB
Available data for LGMT from the past 2 hours
MITILINI
Metar
LGMT 260950Z 35006KT 300V030 CAVOK 30/20 Q1012

09:50 UTC

Wind: 350° 6kt

Visibility:

Sky:

Temp: 30 deg C / 86 deg F

Dewpoint: 20 deg C / 68 deg F

Pressure: 1012 hPa

TAF
TAF LGMT 260800Z 2609/2618 VRB05KT 9999 FEW025 BECMG 2609/2611 35015KT